• Join FlightAware (Why Join?)
  • Login
  • US Flag 
08:48PM EDT


 

Airport Tracker/Info


-or-


 

Live Flight TrackerFlight Track Log ✈ UAL118 ✈ 04-May-2013 ✈ EDDF / FRA - KEWR

Flight Track Log - Related Links

Times and Time Zones

All times are in EDT time to prevent confusion due to time zone crossing. See the UAL118 flight status page for this flight to view local times or setup timezone preferences in your user account.

Time Position Orientation Groundspeed Altitude Reporting Facility
EDT Latitude Longitude Course Direction KTS MPH feet Rate Location/Type
05:32AM 51.8048 1.0600 289° West  Level FlightAware Approximate
05:33AM 51.8330 0.8918 284° West  Level FlightAware Approximate
05:34AM 51.8584 0.7222 284° West  Level FlightAware Approximate
05:35AM 51.8893 0.5551 288° West  Level FlightAware Approximate
05:36AM 51.9227 0.3891 288° West  Level FlightAware Approximate
05:37AM 51.9560 0.2228 288° West  Level FlightAware Approximate
05:38AM 51.9889 0.0562 288° West  Level FlightAware Approximate
05:39AM 52.0205 -0.1112 287° West  Level FlightAware Approximate
05:40AM 52.0513 -0.2791 287° West  Level FlightAware Approximate
05:41AM 52.0819 -0.4472 287° West  Level FlightAware Approximate
05:42AM 52.1122 -0.6155 286° West  Level FlightAware Approximate
05:43AM 52.1423 -0.7841 286° West  Level FlightAware Approximate
05:44AM 52.1721 -0.9529 286° West  Level FlightAware Approximate
05:45AM 52.2017 -1.1220 286° West  Level FlightAware Approximate
05:46AM 52.2310 -1.2913 286° West  Level FlightAware Approximate
05:47AM 52.2600 -1.4608 286° West  Level FlightAware Approximate
05:48AM 52.2903 -1.6298 287° West  Level FlightAware Approximate
05:49AM 52.3208 -1.7989 287° West  Level FlightAware Approximate
05:50AM 52.3511 -1.9681 286° West  Level FlightAware Approximate
05:51AM 52.3811 -2.1376 286° West  Level FlightAware Approximate
05:52AM 52.4093 -2.3081 285° West  Level FlightAware Approximate
05:53AM 52.4371 -2.4789 285° West  Level FlightAware Approximate
05:54AM 52.4647 -2.6498 285° West  Level FlightAware Approximate
05:55AM 52.4894 -2.8216 285° West  Level FlightAware Approximate
05:56AM 52.5163 -2.9930 285° West  Level FlightAware Approximate
05:57AM 52.5429 -3.1647 284° West  Level FlightAware Approximate
05:58AM 52.5694 -3.3365 284° West  Level FlightAware Approximate
05:59AM 52.5955 -3.5086 284° West  Level FlightAware Approximate
06:00AM 52.6214 -3.6809 284° West  Level FlightAware Approximate
06:01AM 52.6471 -3.8533 284° West  Level FlightAware Approximate
06:02AM 52.6725 -4.0260 284° West  Level FlightAware Approximate
06:03AM 52.6966 -4.1993 282° West  Level FlightAware Approximate
06:04AM 52.7195 -4.3731 282° West  Level FlightAware Approximate
06:05AM 52.7422 -4.5471 282° West  Level FlightAware Approximate
06:06AM 52.7647 -4.7213 282° West  Level FlightAware Approximate
06:07AM 52.7868 -4.8956 282° West  Level FlightAware Approximate
06:08AM 52.8095 -5.0699 283° West  Level FlightAware Approximate
06:09AM 52.8328 -5.2440 283° West  Level FlightAware Approximate
06:10AM 52.8559 -5.4183 282° West  Level FlightAware Approximate
06:11AM 52.8794 -5.5926 283° West  Level FlightAware Approximate
06:12AM 52.9030 -5.7668 283° West  Level FlightAware Approximate
06:13AM 52.9265 -5.9413 283° West  Level FlightAware Approximate
06:14AM 52.9496 -6.1159 282° West  Level FlightAware Approximate
06:15AM 52.9726 -6.2908 282° West  Level FlightAware Approximate
06:16AM 52.9952 -6.4658 282° West  Level FlightAware Approximate
06:17AM 53.0176 -6.6410 282° West  Level FlightAware Approximate
06:18AM 53.0392 -6.8165 282° West  Level FlightAware Approximate
06:19AM 53.0606 -6.9923 281° West  Level FlightAware Approximate
06:20AM 53.0816 -7.1682 281° West  Level FlightAware Approximate
06:21AM 53.1025 -7.3443 281° West  Level FlightAware Approximate
06:22AM 53.1230 -7.5205 281° West  Level FlightAware Approximate
06:23AM 53.1433 -7.6969 281° West  Level FlightAware Approximate
06:24AM 53.1634 -7.8735 281° West  Level FlightAware Approximate
06:25AM 53.1832 -8.0503 281° West  Level FlightAware Approximate
06:26AM 53.2027 -8.2272 281° West  Level FlightAware Approximate
06:27AM 53.2219 -8.4043 280° West  Level FlightAware Approximate
06:28AM 53.2409 -8.5815 280° West  Level FlightAware Approximate
06:29AM 53.2597 -8.7589 280° West  Level FlightAware Approximate
06:30AM 53.2781 -8.9364 280° West  Level FlightAware Approximate
06:31AM 53.2963 -9.1141 280° West  Level FlightAware Approximate
06:32AM 53.3143 -9.2920 280° West  Level FlightAware Approximate
06:33AM 53.3320 -9.4700 280° West  Level FlightAware Approximate
06:34AM 53.3494 -9.6481 279° West  Level FlightAware Approximate
06:35AM 53.3665 -9.8264 279° West  Level FlightAware Approximate
06:36AM 53.3834 -10.0048 279° West  Level FlightAware Approximate
06:37AM 53.4000 -10.1834 279° West  Level FlightAware Approximate
06:38AM 53.4160 -10.3622 279° West  Level FlightAware Approximate
06:39AM 53.4317 -10.5411 278° West  Level FlightAware Approximate
06:40AM 53.4471 -10.7202 278° West  Level FlightAware Approximate
06:41AM 53.4623 -10.8994 278° West  Level FlightAware Approximate
06:42AM 53.4772 -11.0787 278° West  Level FlightAware Approximate
06:43AM 53.4919 -11.2582 278° West  Level FlightAware Approximate
06:44AM 53.5062 -11.4377 278° West  Level FlightAware Approximate
06:45AM 53.5203 -11.6174 278° West  Level FlightAware Approximate
06:46AM 53.5342 -11.7972 277° West  Level FlightAware Approximate
06:47AM 53.5477 -11.9771 277° West  Level FlightAware Approximate
06:48AM 53.5610 -12.1572 277° West  Level FlightAware Approximate
06:49AM 53.5740 -12.3373 277° West  Level FlightAware Approximate
06:50AM 53.5868 -12.5176 277° West  Level FlightAware Approximate
06:51AM 53.5993 -12.6980 277° West  Level FlightAware Approximate
06:52AM 53.6115 -12.8784 277° West  Level FlightAware Approximate
06:53AM 53.6234 -13.0590 276° West  Level FlightAware Approximate
06:54AM 53.6351 -13.2397 276° West  Level FlightAware Approximate
06:55AM 53.6464 -13.4205 276° West  Level FlightAware Approximate
06:56AM 53.6576 -13.6013 276° West  Level FlightAware Approximate
06:57AM 53.6684 -13.7823 276° West  Level FlightAware Approximate
06:58AM 53.6790 -13.9634 276° West  Level FlightAware Approximate
06:59AM 53.6893 -14.1445 276° West  Level FlightAware Approximate
07:00AM 53.6993 -14.3258 275° West  Level FlightAware Approximate
07:01AM 53.7090 -14.5071 275° West  Level FlightAware Approximate
07:02AM 53.7185 -14.6885 275° West  Level FlightAware Approximate
07:03AM 53.7277 -14.8700 275° West  Level FlightAware Approximate
07:04AM 53.7366 -15.0515 275° West  Level FlightAware Approximate
07:05AM 53.7503 -15.2634 276° West  Level Estimated
07:06AM 53.7636 -15.4755 276° West  Level Estimated
07:07AM 53.7765 -15.6876 276° West  Level Estimated
07:08AM 53.7890 -15.9000 276° West  Level Estimated
07:09AM 53.8012 -16.1124 276° West  Level Estimated
07:10AM 53.8129 -16.3250 275° West  Level Estimated
07:11AM 53.8243 -16.5376 275° West  Level Estimated
07:12AM 53.8354 -16.7504 275° West  Level Estimated
07:13AM 53.8460 -16.9633 275° West  Level Estimated
07:14AM 53.8563 -17.1763 275° West  Level Estimated
07:15AM 53.8662 -17.3895 275° West  Level Estimated
07:16AM 53.8757 -17.6027 274° West  Level Estimated
07:17AM 53.8848 -17.8160 274° West  Level Estimated
07:18AM 53.8936 -18.0294 274° West  Level Estimated
07:19AM 53.9020 -18.2428 274° West  Level Estimated
07:20AM 53.9100 -18.4564 274° West  Level Estimated
07:21AM 53.9176 -18.6700 274° West  Level Estimated
07:22AM 53.9248 -18.8838 273° West  Level Estimated
07:23AM 53.9317 -19.0976 273° West  Level Estimated
07:24AM 53.9382 -19.3114 273° West  Level Estimated
07:25AM 53.9443 -19.5254 273° West  Level Estimated
07:26AM 53.9500 -19.7393 273° West  Level Estimated
07:27AM 53.9553 -19.9534 273° West  Level Estimated
07:28AM 53.9603 -20.1675 272° West  Level Estimated
07:29AM 53.9649 -20.3816 272° West  Level Estimated
07:29AM 50.0000 -20.0000 274° West 481 554 37,000  Level ETMS Enhanced Traffic Management System
07:30AM 53.9691 -20.5958 272° West  Level Estimated
07:31AM 53.9729 -20.8100 272° West  Level Estimated
07:32AM 53.9763 -21.0243 272° West  Level Estimated
07:33AM 53.9794 -21.2386 271° West  Level Estimated
07:34AM 53.9821 -21.4529 271° West  Level Estimated
07:35AM 50.1008 -23.7482 271° West 481 554 37,000  Level FlightAware Transoceanic
07:36AM 50.1029 -23.9568 271° West 481 554 37,000  Level FlightAware Transoceanic
07:37AM 50.1045 -24.1654 271° West 481 554 37,000  Level FlightAware Transoceanic
07:38AM 50.1058 -24.3741 270° West 481 554 37,000  Level FlightAware Transoceanic
07:39AM 50.1068 -24.5827 270° West 481 554 37,000  Level FlightAware Transoceanic
07:40AM 50.1073 -24.7914 270° West 481 554 37,000  Level FlightAware Transoceanic
07:41AM 50.1075 -25.0000 270° West 481 554 37,000  Level FlightAware Transoceanic
07:42AM 50.1073 -25.2086 270° West 481 554 37,000  Level FlightAware Transoceanic
07:43AM 50.1068 -25.4173 270° West 481 554 37,000  Level FlightAware Transoceanic
07:44AM 50.1058 -25.6259 270° West 481 554 37,000  Level FlightAware Transoceanic
07:45AM 50.1045 -25.8346 269° West 481 554 37,000  Level FlightAware Transoceanic
07:46AM 50.1029 -26.0432 269° West 481 554 37,000  Level FlightAware Transoceanic
07:47AM 50.1008 -26.2518 269° West 481 554 37,000  Level FlightAware Transoceanic
07:48AM 50.0984 -26.4603 269° West 481 554 37,000  Level FlightAware Transoceanic
07:49AM 50.0956 -26.6689 269° West 481 554 37,000  Level FlightAware Transoceanic
07:50AM 50.0924 -26.8774 269° West 481 554 37,000  Level FlightAware Transoceanic
07:51AM 50.0888 -27.0859 268° West 481 554 37,000  Level FlightAware Transoceanic
07:52AM 50.0849 -27.2944 268° West 481 554 37,000  Level FlightAware Transoceanic
07:53AM 50.0806 -27.5028 268° West 481 554 37,000  Level FlightAware Transoceanic
07:54AM 50.0760 -27.7112 268° West 481 554 37,000  Level FlightAware Transoceanic
07:55AM 50.0709 -27.9195 268° West 481 554 37,000  Level FlightAware Transoceanic
07:56AM 50.0655 -28.1278 268° West 481 554 37,000  Level FlightAware Transoceanic
07:57AM 50.0597 -28.3361 267° West 481 554 37,000  Level FlightAware Transoceanic
07:58AM 50.0535 -28.5443 267° West 481 554 37,000  Level FlightAware Transoceanic
07:59AM 50.0470 -28.7525 267° West 481 554 37,000  Level FlightAware Transoceanic
08:00AM 50.0401 -28.9605 267° West 481 554 37,000  Level FlightAware Transoceanic
08:01AM 50.0328 -29.1686 267° West 481 554 37,000  Level FlightAware Transoceanic
08:02AM 50.0252 -29.3765 267° West 481 554 37,000  Level FlightAware Transoceanic
08:03AM 50.0172 -29.5844 266° West 481 554 37,000  Level FlightAware Transoceanic
08:04AM 50.0088 -29.7922 266° West 481 554 37,000  Level FlightAware Transoceanic
08:05AM 50.0005 -29.9880 266° West  Level FlightAware Approximate
08:06AM 49.9919 -30.1836 266° West  Level FlightAware Approximate
08:07AM 49.9748 -30.1674 257° West  Level FlightAware Approximate
08:08AM 49.9457 -30.3581 257° West  Level FlightAware Approximate
08:09AM 49.9163 -30.5486 257° West  Level FlightAware Approximate
08:09AM 50.0000 -30.0000 257° West 483 556 37,000  Level ETMS Enhanced Traffic Management System
08:10AM 49.8866 -30.7388 256° West  Level FlightAware Approximate
08:11AM 49.8566 -30.9288 256° West  Level FlightAware Approximate
08:12AM 49.8262 -31.1185 256° West  Level FlightAware Approximate
08:13AM 49.7956 -31.3080 256° West  Level FlightAware Approximate
08:14AM 49.7647 -31.4973 256° West  Level FlightAware Approximate
08:15AM 49.6770 -32.0223 255° West 483 556 37,000  Level FlightAware Transoceanic
08:16AM 49.6428 -32.2230 255° West 483 556 37,000  Level FlightAware Transoceanic
08:17AM 49.6082 -32.4235 255° West 483 556 37,000  Level FlightAware Transoceanic
08:18AM 49.5733 -32.6236 255° West 483 556 37,000  Level FlightAware Transoceanic
08:19AM 49.5381 -32.8235 255° West 483 556 37,000  Level FlightAware Transoceanic
08:20AM 49.5024 -33.0231 255° West 483 556 37,000  Level FlightAware Transoceanic
08:21AM 49.4665 -33.2224 254° West 483 556 37,000  Level FlightAware Transoceanic
08:22AM 49.4302 -33.4214 254° West 483 556 37,000  Level FlightAware Transoceanic
08:23AM 49.3936 -33.6200 254° West 483 556 37,000  Level FlightAware Transoceanic
08:24AM 49.3566 -33.8185 254° West 483 556 37,000  Level FlightAware Transoceanic
08:25AM 49.3193 -34.0165 254° West 483 556 37,000  Level FlightAware Transoceanic
08:26AM 49.2817 -34.2144 254° West 483 556 37,000  Level FlightAware Transoceanic
08:27AM 49.2437 -34.4118 254° West 483 556 37,000  Level FlightAware Transoceanic
08:28AM 49.2053 -34.6090 253° West 483 556 37,000  Level FlightAware Transoceanic
08:29AM 49.1667 -34.8059 253° West 483 556 37,000  Level FlightAware Transoceanic
08:30AM 49.1277 -35.0025 253° West 483 556 37,000  Level FlightAware Transoceanic
08:31AM 49.0884 -35.1987 253° West 483 556 37,000  Level FlightAware Transoceanic
08:32AM 49.0487 -35.3947 253° West 483 556 37,000  Level FlightAware Transoceanic
08:33AM 49.0087 -35.5903 253° West 483 556 37,000  Level FlightAware Transoceanic
08:34AM 48.9684 -35.7857 252° West 483 556 37,000  Level FlightAware Transoceanic
08:35AM 48.9278 -35.9807 252° West 483 556 37,000  Level FlightAware Transoceanic
08:36AM 48.8868 -36.1754 252° West 483 556 37,000  Level FlightAware Transoceanic
08:37AM 48.8455 -36.3697 252° West 483 556 37,000  Level FlightAware Transoceanic
08:38AM 48.8039 -36.5638 252° West 483 556 37,000  Level FlightAware Transoceanic
08:39AM 48.7619 -36.7575 252° West 483 556 37,000  Level FlightAware Transoceanic
08:40AM 48.7197 -36.9509 252° West 483 556 37,000  Level FlightAware Transoceanic
08:41AM 48.6771 -37.1440 251° West 483 556 37,000  Level FlightAware Transoceanic
08:42AM 48.6341 -37.3367 251° West 483 556 37,000  Level FlightAware Transoceanic
08:43AM 48.5909 -37.5291 251° West 483 556 37,000  Level FlightAware Transoceanic
08:44AM 48.5473 -37.7212 251° West 483 556 37,000  Level FlightAware Transoceanic
08:45AM 48.5034 -37.9130 251° West 483 556 37,000  Level FlightAware Transoceanic
08:46AM 48.4593 -38.1044 251° West 483 556 37,000  Level FlightAware Transoceanic
08:47AM 48.4147 -38.2955 251° West 483 556 37,000  Level FlightAware Transoceanic
08:48AM 48.3699 -38.4862 250° West 483 556 37,000  Level FlightAware Transoceanic
08:49AM 48.3247 -38.6766 250° West 483 556 37,000  Level FlightAware Transoceanic
08:50AM 48.2793 -38.8667 250° West 483 556 37,000  Level FlightAware Transoceanic
08:51AM 48.2335 -39.0564 250° West 483 556 37,000  Level FlightAware Transoceanic
08:52AM 48.1874 -39.2458 250° West 483 556 37,000  Level FlightAware Transoceanic
08:53AM 48.1410 -39.4349 250° West 483 556 37,000  Level FlightAware Transoceanic
08:54AM 48.0943 -39.6236 250° West 483 556 37,000  Level FlightAware Transoceanic
08:55AM 48.0473 -39.8120 249° West 483 556 37,000  Level FlightAware Transoceanic
08:56AM 48.0029 -39.9884 249° West  Level FlightAware Approximate
08:57AM 47.9582 -40.1645 249° West  Level FlightAware Approximate
08:57AM 48.0000 -40.0000 257° West 501 577 37,000  Level ETMS Enhanced Traffic Management System
08:58AM 47.9750 -40.1592 257° West  Level FlightAware Approximate
08:59AM 47.9459 -40.3424 257° West  Level FlightAware Approximate
09:00AM 47.9165 -40.5254 257° West  Level FlightAware Approximate
09:01AM 47.8869 -40.7082 256° West  Level FlightAware Approximate
09:02AM 47.8569 -40.8907 256° West  Level FlightAware Approximate
09:03AM 47.7780 -41.4153 256° West 501 577 37,000  Level FlightAware Transoceanic
09:04AM 47.7448 -41.6165 256° West 501 577 37,000  Level FlightAware Transoceanic
09:05AM 47.7113 -41.8174 256° West 501 577 37,000  Level FlightAware Transoceanic
09:06AM 47.6775 -42.0181 256° West 501 577 37,000  Level FlightAware Transoceanic
09:07AM 47.6433 -42.2185 256° West 501 577 37,000  Level FlightAware Transoceanic
09:08AM 47.6088 -42.4187 256° West 501 577 37,000  Level FlightAware Transoceanic
09:09AM 47.5739 -42.6185 255° West 501 577 37,000  Level FlightAware Transoceanic
09:10AM 47.5387 -42.8181 255° West 501 577 37,000  Level FlightAware Transoceanic
09:11AM 47.5031 -43.0175 255° West 501 577 37,000  Level FlightAware Transoceanic
09:12AM 47.4672 -43.2165 255° West 501 577 37,000  Level FlightAware Transoceanic
09:13AM 47.4309 -43.4154 255° West 501 577 37,000  Level FlightAware Transoceanic
09:14AM 47.3943 -43.6139 255° West 501 577 37,000  Level FlightAware Transoceanic
09:15AM 47.3573 -43.8121 255° West 501 577 37,000  Level FlightAware Transoceanic
09:16AM 47.3201 -44.0101 254° West 501 577 37,000  Level FlightAware Transoceanic
09:17AM 47.2824 -44.2078 254° West 501 577 37,000  Level FlightAware Transoceanic
09:18AM 47.2445 -44.4052 254° West 501 577 37,000  Level FlightAware Transoceanic
09:19AM 47.2062 -44.6023 254° West 501 577 37,000  Level FlightAware Transoceanic
09:20AM 47.1675 -44.7991 254° West 501 577 37,000  Level FlightAware Transoceanic
09:21AM 47.1285 -44.9957 254° West 501 577 37,000  Level FlightAware Transoceanic
09:22AM 47.0892 -45.1919 254° West 501 577 37,000  Level FlightAware Transoceanic
09:23AM 47.0495 -45.3879 253° West 501 577 37,000  Level FlightAware Transoceanic
09:24AM 47.0096 -45.5836 253° West 501 577 37,000  Level FlightAware Transoceanic
09:25AM 46.9692 -45.7789 253° West 501 577 37,000  Level FlightAware Transoceanic
09:26AM 46.9286 -45.9740 253° West 501 577 37,000  Level FlightAware Transoceanic
09:27AM 46.8876 -46.1688 253° West 501 577 37,000  Level FlightAware Transoceanic
09:28AM 46.8463 -46.3633 253° West 501 577 37,000  Level FlightAware Transoceanic
09:29AM 46.8046 -46.5575 253° West 501 577 37,000  Level FlightAware Transoceanic
09:30AM 46.7627 -46.7514 252° West 501 577 37,000  Level FlightAware Transoceanic
09:31AM 46.7204 -46.9450 252° West 501 577 37,000  Level FlightAware Transoceanic
09:32AM 46.6778 -47.1382 252° West 501 577 37,000  Level FlightAware Transoceanic
09:33AM 46.6348 -47.3312 252° West 501 577 37,000  Level FlightAware Transoceanic
09:34AM 46.5915 -47.5239 252° West 501 577 37,000  Level FlightAware Transoceanic
09:35AM 46.5480 -47.7162 252° West 501 577 37,000  Level FlightAware Transoceanic
09:36AM 46.5040 -47.9083 252° West 501 577 37,000  Level FlightAware Transoceanic
09:37AM 46.4598 -48.1000 251° West 501 577 37,000  Level FlightAware Transoceanic
09:38AM 46.4152 -48.2914 251° West 501 577 37,000  Level FlightAware Transoceanic
09:39AM 46.3704 -48.4826 251° West 501 577 37,000  Level FlightAware Transoceanic
09:40AM 46.3252 -48.6734 251° West 501 577 37,000  Level FlightAware Transoceanic
09:41AM 46.2797 -48.8638 251° West 501 577 37,000  Level FlightAware Transoceanic
09:42AM 46.2338 -49.0540 251° West 501 577 37,000  Level FlightAware Transoceanic
09:43AM 46.1877 -49.2438 251° West 501 577 37,000  Level FlightAware Transoceanic
09:44AM 46.1412 -49.4334 250° West 501 577 37,000  Level FlightAware Transoceanic
09:45AM 46.0945 -49.6226 250° West 501 577 37,000  Level FlightAware Transoceanic
09:46AM 46.0474 -49.8114 250° West 501 577 37,000  Level FlightAware Transoceanic
09:47AM 46.0009 -49.9802 248° West  Level FlightAware Approximate
09:48AM 45.9541 -50.1486 248° West  Level FlightAware Approximate
09:48AM 46.0000 -50.0000 257° West 428 493 37,000  Level ETMS Enhanced Traffic Management System
09:49AM 45.9774 -50.1388 257° West  Level FlightAware Approximate
09:49AM 45.9333 -50.3167 257° West 490 564 37,100  Level Gander Center
09:50AM 45.9485 -50.3153 257° West  Level FlightAware Approximate
09:50AM 45.9000 -50.5167 257° West 490 564 37,100  Level Gander Center
09:51AM 45.9193 -50.4917 257° West  Level FlightAware Approximate
09:51AM 45.9000 -50.6833 270° West 490 564 37,100  Level Gander Center
09:52AM 45.8898 -50.6676 257° West  Level FlightAware Approximate
09:52AM 45.8667 -50.9167 258° West 490 564 37,100  Level Gander Center
09:53AM 45.8601 -50.8434 256° West  Level FlightAware Approximate
09:53AM 45.8500 -51.0833 262° West 490 564 37,100  Level Gander Center
09:54AM 45.8242 -51.0563 257° West  Level FlightAware Approximate
09:54AM 45.8500 -51.3000 270° West 490 564 37,100  Level Moncton Center
09:55AM 45.7956 -51.2322 257° West  Level FlightAware Approximate
09:55AM 45.8333 -51.5000 263° West 490 564 37,100  Level Moncton Center
09:56AM 45.8167 -51.6833 263° West 490 564 37,100  Level Moncton Center
09:57AM 45.8000 -51.8833 263° West 490 564 37,100  Level Gander Center
09:58AM 45.7833 -52.0667 263° West 490 564 37,100  Level Gander Center
09:59AM 45.7667 -52.2500 263° West 490 564 37,100  Level Gander Center
10:00AM 45.7667 -52.3333 270° West 490 564 37,100  Level Gander Center
10:00AM 45.7500 -52.4500 258° West 500 575 37,100  Level Moncton Center
10:01AM 45.7333 -52.6833 264° West 500 575 37,100  Level Moncton Center
10:02AM 45.7167 -52.8500 262° West 500 575 37,100  Level Moncton Center
10:03AM 45.7000 -53.0667 264° West 490 564 37,100  Level Moncton Center
10:04AM 45.6833 -53.2333 262° West 490 564 37,100  Level Moncton Center
10:05AM 45.6667 -53.4333 263° West 490 564 37,100  Level Moncton Center
10:06AM 45.6500 -53.6167 263° West 490 564 37,100  Level Gander Center
10:07AM 45.6333 -53.8167 263° West 490 564 37,100 360 Level Gander Center
10:08AM 45.6167 -54.0000 263° West 480 552 37,900 480 Climbing Gander Center
10:09AM 45.6000 -54.2000 263° West 480 552 38,100 60 Climbing Gander Center
10:10AM 45.5833 -54.3833 263° West 480 552 38,100  Level Gander Center
10:11AM 45.5500 -54.5667 256° West 480 552 38,100  Level Gander Center
10:12AM 45.5333 -54.7500 263° West 490 564 38,100  Level Gander Center
10:13AM 45.5333 -54.9500 270° West 480 552 38,100  Level Gander Center
10:14AM 45.4833 -55.1333 249° West 480 552 38,100  Level Gander Center
10:15AM 45.4833 -55.3167 270° West 490 564 38,100  Level Gander Center
10:16AM 45.4500 -55.5333 258° West 480 552 38,100  Level Gander Center
10:17AM 45.4333 -55.7000 262° West 480 552 38,100  Level Gander Center
10:18AM 45.4167 -55.8833 263° West 480 552 38,100  Level Gander Center
10:19AM 45.4000 -56.0667 263° West 480 552 38,100  Level Moncton Center
10:20AM 45.3833 -56.2667 263° West 480 552 38,100  Level Gander Center
10:21AM 45.3500 -56.4333 254° West 480 552 38,100  Level Gander Center
10:22AM 45.3167 -56.6333 257° West 480 552 38,100  Level Moncton Center
10:23AM 45.3000 -56.8333 263° West 480 552 38,100  Level Moncton Center
10:24AM 45.2833 -57.0167 263° West 480 552 38,100  Level Moncton Center
10:25AM 45.2667 -57.2167 263° West 480 552 38,100  Level Moncton Center
10:26AM 45.2333 -57.3833 254° West 480 552 38,100  Level Moncton Center
10:27AM 45.2000 -57.5833 257° West 480 552 38,100  Level Moncton Center
10:28AM 45.1833 -57.7667 263° West 480 552 38,100  Level Moncton Center
10:29AM 45.1500 -57.9667 257° West 480 552 38,100  Level Moncton Center
10:30AM 45.1333 -58.1333 262° West 470 541 38,100  Level Moncton Center
10:31AM 45.1000 -58.3333 257° West 480 552 38,100  Level Gander Center
10:32AM 45.0833 -58.5000 262° West 480 552 38,100  Level Gander Center
10:33AM 45.0667 -58.6833 263° West 480 552 38,100  Level Gander Center
10:34AM 45.0333 -58.8833 257° West 480 552 38,100  Level Gander Center
10:35AM 45.0000 -59.0667 256° West 480 552 38,100  Level Gander Center
10:36AM 44.9667 -59.2500 256° West 480 552 38,100  Level Gander Center
10:37AM 44.9667 -59.4167 270° West 480 552 38,100  Level Gander Center
10:38AM 44.9333 -59.6167 257° West 480 552 38,100  Level Gander Center
10:39AM 44.9000 -59.8000 256° West 480 552 38,100  Level Gander Center
10:40AM 44.8667 -59.9833 256° West 480 552 38,100  Level Moncton Center
10:41AM 44.8500 -60.1667 263° West 480 552 38,100  Level Moncton Center
10:42AM 44.8167 -60.3333 254° West 480 552 38,100  Level Moncton Center
10:43AM 44.7667 -60.5333 251° West 470 541 38,100  Level Moncton Center
10:44AM 44.7667 -60.7000 270° West 470 541 38,100  Level Gander Center
10:45AM 44.7333 -60.8833 256° West 470 541 38,100  Level Gander Center
10:46AM 44.7000 -61.0500 254° West 470 541 38,100  Level Gander Center
10:47AM 44.6667 -61.2500 257° West 470 541 38,100  Level Moncton Center
10:48AM 44.6333 -61.4167 254° West 470 541 38,100  Level Moncton Center
10:49AM 44.6000 -61.6000 256° West 470 541 38,100  Level Moncton Center
10:50AM 44.5667 -61.7833 256° West 470 541 38,100  Level Moncton Center
10:51AM 44.5500 -61.9500 262° West 470 541 38,100  Level Moncton Center
10:52AM 44.5167 -62.1500 257° West 470 541 38,100  Level Moncton Center
10:53AM 44.4833 -62.3167 254° West 470 541 38,100  Level Moncton Center
10:54AM 44.4500 -62.5000 256° West 470 541 38,100  Level Moncton Center
10:55AM 44.4167 -62.6667 254° West 470 541 38,100  Level Moncton Center
10:56AM 44.4000 -62.8333 262° West 470 541 38,100  Level Moncton Center
10:57AM 44.3667 -63.0167 256° West 470 541 38,100  Level Moncton Center
10:58AM 44.3333 -63.2000 256° West 470 541 38,100  Level Moncton Center
10:59AM 44.3000 -63.3667 254° West 470 541 38,100  Level Moncton Center
11:00AM 44.2500 -63.5500 249° West 470 541 38,100  Level Moncton Center
11:01AM 44.2167 -63.7167 254° West 470 541 38,100  Level Moncton Center
11:02AM 44.1833 -63.9000 256° West 470 541 38,100  Level Moncton Center
11:03AM 44.1500 -64.1000 257° West 480 552 38,100  Level Moncton Center
11:04AM 44.1167 -64.2500 253° West 480 552 38,100  Level Gander Center
11:05AM 44.0833 -64.4333 256° West 480 552 38,100  Level Gander Center
11:06AM 44.0500 -64.6167 256° West 480 552 38,100  Level Gander Center
11:07AM 44.0167 -64.7833 255° West 480 552 38,100 -60 Level Gander Center
11:08AM 43.9833 -64.9833 257° West 480 552 38,000  Descending Gander Center
11:09AM 43.9500 -65.1667 256° West 480 552 38,100  Climbing Moncton Center
11:10AM 43.9167 -65.3333 255° West 480 552 38,100  Level Moncton Center
11:11AM 43.8667 -65.5167 249° West 480 552 38,100  Level Moncton Center
11:12AM 43.8333 -65.7000 256° West 480 552 38,100  Level Moncton Center
11:13AM 43.8000 -65.8833 256° West 480 552 38,100  Level Moncton Center
11:14AM 43.7500 -66.0333 245° Southwest 480 552 38,100  Level Moncton Center
11:15AM 43.7167 -66.2167 256° West 480 552 38,100  Level Moncton Center
11:16AM 43.6833 -66.4000 256° West 480 552 38,100  Level Moncton Center
11:18AM 43.6000 -66.7667 253° West 490 564 38,100 -60 Level Moncton Center
11:21AM 43.5242 -67.1469 255° West 485 558 38,000 -60 Descending Boston Center
11:22AM 43.4847 -67.2850 249° West 485 558 38,000  Level Boston Center
11:23AM 43.4231 -67.4964 248° West 490 564 38,000  Level Boston Center
11:23AM 43.3667 -67.6333 241° Southwest 480 552 38,100  Climbing Moncton Center
11:24AM 43.3167 -67.8167 250° West 480 552 38,000  Descending Moncton Center
11:25AM 43.2500 -67.9667 239° Southwest 490 564 38,100  Climbing Moncton Center
11:26AM 43.1667 -68.1000 229° Southwest 490 564 38,000 -60 Descending Moncton Center
11:27AM 43.0833 -68.2333 229° Southwest 500 575 38,000 -240 Level Moncton Center
11:28AM 42.9833 -68.4000 231° Southwest 500 575 37,600 -960 Descending Moncton Center
11:29AM 42.8833 -68.5500 228° Southwest 510 587 36,100 -1,380 Descending Moncton Center
11:30AM 42.8167 -68.6833 236° Southwest 510 587 34,900 -1,320 Descending Moncton Center
11:31AM 42.7667 -68.8500 248° West 500 575 33,500 -1,260 Descending Moncton Center
11:33AM 42.7147 -69.0572 251° West 496 571 32,100 -1,260 Descending Boston Center
11:34AM 42.6803 -69.2372 255° West 496 571 30,800 -1,500 Descending Boston Center
11:35AM 42.6483 -69.4392 258° West 502 578 29,100 -1,380 Descending Boston Center
11:36AM 42.6133 -69.6189 255° West 497 572 28,100 -540 Descending Boston Center
11:37AM 42.5822 -69.7950 257° West 497 572 28,100 -60 Level Boston Center
11:38AM 42.5508 -69.9767 257° West 497 572 28,000 -60 Descending Boston Center
11:39AM 42.5169 -70.1556 256° West 497 572 28,000  Level Boston Center
11:40AM 42.4831 -70.3369 256° West 497 572 28,000  Level Boston Center
11:41AM 42.4444 -70.5183 254° West 497 572 28,000  Level Boston Center
11:42AM 42.4142 -70.6994 257° West 497 572 28,000 -300 Level Boston Center
11:43AM 42.3833 -70.8800 257° West 497 572 27,500 -840 Descending Boston Center
11:44AM 42.3461 -71.0636 255° West 497 572 26,400 -1,140 Descending Boston Center
11:45AM 42.3025 -71.2414 252° West 497 572 25,300 -1,200 Descending Boston Center
11:46AM 42.2603 -71.4189 252° West 502 578 24,100 -660 Descending Boston Center
11:47AM 42.2219 -71.5597 250° West 502 578 24,000 -840 Descending Boston Center
11:48AM 42.1711 -71.7650 252° West 497 572 22,500 -2,040 Descending Boston Center
11:49AM 42.1325 -71.9250 252° West 479 551 20,000 -2,280 Descending Boston Center
11:50AM 42.0956 -72.0653 251° West 458 527 18,000 -1,980 Descending Boston Center
11:51AM 42.0542 -72.2389 252° West 426 490 16,100 -960 Descending Boston Center
11:52AM 42.0211 -72.3675 251° West 421 484 16,100  Level Boston Center
11:53AM 41.9814 -72.5294 252° West 415 478 16,100  Level Boston Center
11:54AM 41.9458 -72.6717 251° West 415 478 16,100  Level Boston Center
11:55AM 41.9100 -72.8167 252° West 415 478 16,100  Level Boston Center
11:56AM 41.8761 -72.9642 253° West 415 478 16,100  Level Boston Center
11:57AM 41.8528 -73.0644 253° West 409 471 16,100  Level Boston Center
11:58AM 41.8078 -73.2533 252° West 409 471 16,100 -300 Level Boston Center
11:59AM 41.7711 -73.3975 251° West 409 471 15,600 -780 Descending Boston Center
12:00PM 41.7364 -73.5389 252° West 409 471 14,600 -1,020 Descending Boston Center
12:01PM 41.7017 -73.6803 252° West 403 464 13,600 -1,020 Descending Boston Center
12:02PM 41.6667 -73.8156 251° West 396 456 12,600 -960 Descending Boston Center
12:03PM 41.6336 -73.9539 252° West 396 456 11,700 -960 Descending Boston Center
12:04PM 41.6028 -74.0836 252° West 382 440 10,700 -1,020 Descending Boston Center
12:05PM 41.5469 -74.1819 233° Southwest 350 403 9,700 -1,260 Descending Boston Center
12:07PM 41.4333 -74.3500 228° Southwest 289 333 7,100 -960 Descending New York TRACON
12:08PM 41.3833 -74.4000 217° Southwest 293 337 7,100  Level New York TRACON
12:09PM 41.3167 -74.4333 201° Southwest 286 329 7,100 -360 Level New York TRACON
12:10PM 41.2333 -74.4667 197° South 290 334 6,400 -540 Descending New York TRACON
12:11PM 41.1667 -74.5000 201° Southwest 282 325 6,100 -180 Descending New York TRACON
12:12PM 41.0833 -74.5333 197° South 276 318 6,100  Level New York TRACON
12:13PM 41.0167 -74.5500 191° South 278 320 6,100 -240 Level New York TRACON
12:14PM 40.9167 -74.5667 187° South 280 322 5,700 -480 Descending New York TRACON
12:15PM 40.8500 -74.5667 180° South 273 314 5,200 -360 Descending New York TRACON
12:16PM 40.7833 -74.5667 180° South 272 313 5,100 -60 Descending New York TRACON
12:17PM 40.7000 -74.5667 180° South 269 310 5,100  Level New York TRACON
12:17PM 40.6333 -74.5500 169° South 267 307 5,100  Level New York TRACON
12:18PM 40.5667 -74.5500 180° South 265 305 5,100 -120 Level New York TRACON
12:19PM 40.5000 -74.5333 169° South 231 266 4,900 -540 Descending New York TRACON
12:20PM 40.4500 -74.5000 153° Southeast 210 242 4,100 -840 Descending New York TRACON
12:21PM 40.4167 -74.4333 123° Southeast 212 244 3,300 -540 Descending New York TRACON
12:22PM 40.4500 -74.3667 57° Northeast 208 239 3,100 -120 Descending New York TRACON
12:23PM 40.4833 -74.3167 49° Northeast 201 231 3,100  Level New York TRACON
12:24PM 40.5333 -74.2667 37° Northeast 195 224 3,100 -300 Level New York TRACON
12:25PM 40.5667 -74.2500 21° North 165 190 2,600 -780 Descending New York TRACON
12:26PM 40.6000 -74.2167 37° Northeast 167 192 1,700 -900 Descending New York TRACON